createdAt,value
2022-08-26T00:06:57.841Z,22.40
2022-08-26T00:09:27.084Z,22.30
2022-08-26T00:12:02.480Z,22.30
2022-08-26T00:14:31.653Z,22.20
2022-08-26T00:17:00.776Z,22.20
2022-08-26T00:19:32.433Z,22.20
2022-08-26T00:22:03.566Z,22.20
2022-08-26T00:24:32.712Z,22.20
2022-08-26T00:27:01.708Z,22.20
2022-08-26T00:29:32.612Z,22.00
2022-08-26T00:32:47.582Z,22.10
2022-08-26T00:41:44.988Z,22.00
2022-08-26T00:48:07.588Z,22.00
2022-08-26T00:50:50.638Z,21.90
2022-08-26T00:53:28.532Z,21.90
2022-08-26T00:56:35.339Z,21.80
2022-08-26T01:00:18.482Z,21.90
2022-08-26T01:02:51.950Z,21.90
2022-08-26T01:05:25.438Z,21.80
2022-08-26T01:08:27.972Z,21.80
2022-08-26T01:10:59.620Z,21.70
2022-08-26T01:13:31.167Z,21.70
2022-08-26T01:16:05.467Z,21.60
2022-08-26T01:19:03.506Z,21.60
2022-08-26T01:22:02.316Z,21.60
2022-08-26T01:24:38.520Z,21.50
2022-08-26T01:30:05.630Z,21.40
2022-08-26T01:32:38.954Z,21.40
2022-08-26T01:35:12.842Z,21.30
2022-08-26T01:37:57.418Z,21.30
2022-08-26T01:40:34.354Z,21.40
2022-08-26T01:43:11.910Z,21.40
2022-08-26T01:45:42.405Z,21.30
2022-08-26T01:48:17.657Z,21.30
2022-08-26T01:51:11.229Z,21.30
2022-08-26T01:53:46.853Z,21.30
2022-08-26T01:56:17.759Z,21.30
2022-08-26T01:58:52.374Z,21.20
2022-08-26T02:01:22.805Z,21.20
2022-08-26T02:04:04.794Z,21.20
2022-08-26T02:06:33.793Z,21.20
2022-08-26T02:09:28.507Z,21.00
2022-08-26T02:12:29.148Z,21.10
2022-08-26T02:15:01.652Z,21.10
2022-08-26T02:17:40.519Z,21.10
2022-08-26T02:20:13.279Z,21.10
2022-08-26T02:22:54.836Z,21.00
2022-08-26T02:25:31.408Z,21.00
2022-08-26T02:28:01.836Z,21.00
2022-08-26T02:30:33.577Z,20.90
2022-08-26T02:33:33.334Z,20.90
2022-08-26T02:36:14.895Z,20.90
2022-08-26T02:38:46.152Z,20.90
2022-08-26T02:41:14.532Z,20.90
2022-08-26T02:43:45.792Z,21.00
2022-08-26T02:46:23.094Z,20.90
2022-08-26T02:49:02.863Z,20.80
2022-08-26T02:51:30.938Z,20.90
2022-08-26T02:54:26.799Z,20.90
2022-08-26T02:56:56.389Z,20.80
2022-08-26T02:59:27.698Z,20.80
2022-08-26T03:02:00.407Z,20.80
2022-08-26T03:04:30.689Z,20.80
2022-08-26T03:07:07.514Z,20.80
2022-08-26T03:09:36.930Z,20.70
2022-08-26T03:12:05.780Z,20.70
2022-08-26T03:14:37.857Z,20.70
2022-08-26T03:17:06.841Z,20.60
2022-08-26T03:19:37.779Z,20.60
2022-08-26T03:22:07.292Z,20.60
2022-08-26T03:24:35.730Z,20.60
2022-08-26T03:27:07.241Z,20.60
2022-08-26T03:29:55.759Z,20.60
2022-08-26T03:32:23.924Z,20.60
2022-08-26T03:35:00.158Z,20.50
2022-08-26T03:37:28.732Z,20.50
2022-08-26T03:39:58.012Z,20.50
2022-08-26T03:42:52.713Z,20.50
2022-08-26T03:45:22.926Z,20.40
2022-08-26T03:47:51.164Z,20.40
2022-08-26T03:50:24.221Z,20.30
2022-08-26T03:52:55.820Z,20.30
2022-08-26T03:55:31.424Z,20.30
2022-08-26T03:57:59.986Z,20.30
2022-08-26T04:00:29.930Z,20.30
2022-08-26T04:02:58.366Z,20.30
2022-08-26T04:05:27.780Z,20.20
2022-08-26T04:07:59.264Z,20.20
2022-08-26T04:10:29.019Z,20.20
2022-08-26T04:12:58.825Z,20.20
2022-08-26T04:15:31.558Z,20.20
2022-08-26T04:17:59.824Z,20.20
2022-08-26T04:20:29.027Z,20.20
2022-08-26T04:22:57.836Z,20.20
2022-08-26T04:25:25.953Z,20.20
2022-08-26T04:27:58.849Z,20.30
2022-08-26T04:30:26.971Z,20.30
2022-08-26T04:32:56.602Z,20.30
2022-08-26T04:35:26.302Z,20.40
2022-08-26T04:37:56.122Z,20.40
2022-08-26T04:40:30.675Z,20.50
2022-08-26T04:42:58.881Z,20.60
2022-08-26T04:45:26.967Z,20.60
2022-08-26T04:47:57.331Z,20.60
2022-08-26T04:50:32.553Z,20.70
2022-08-26T04:53:02.026Z,20.80
2022-08-26T04:55:39.841Z,20.90
2022-08-26T04:58:16.297Z,21.00
2022-08-26T05:00:49.184Z,21.00
2022-08-26T05:03:19.904Z,21.00
2022-08-26T05:06:14.579Z,20.90
2022-08-26T05:08:43.869Z,20.90
2022-08-26T05:11:12.780Z,20.90
2022-08-26T05:13:41.897Z,20.90
2022-08-26T05:16:12.636Z,20.90
2022-08-26T05:18:44.630Z,20.90
2022-08-26T05:21:18.970Z,21.00
2022-08-26T05:23:49.479Z,21.00
2022-08-26T05:26:23.034Z,21.00
2022-08-26T05:28:54.930Z,21.10
2022-08-26T05:31:27.146Z,21.10
2022-08-26T05:34:03.526Z,21.20
2022-08-26T05:36:35.062Z,21.30
2022-08-26T05:39:12.168Z,21.40
2022-08-26T05:41:44.792Z,21.50
2022-08-26T05:44:18.894Z,21.60
2022-08-26T05:46:48.191Z,21.60
2022-08-26T05:49:26.633Z,21.70
2022-08-26T05:52:04.374Z,21.70
2022-08-26T05:54:37.770Z,21.70
2022-08-26T05:57:07.832Z,21.80
2022-08-26T05:59:37.162Z,21.80
2022-08-26T06:02:07.814Z,21.80
2022-08-26T06:04:39.330Z,21.80
2022-08-26T06:07:09.903Z,21.80
2022-08-26T06:09:45.730Z,21.90
2022-08-26T06:12:15.837Z,21.90
2022-08-26T06:14:52.630Z,22.00
2022-08-26T06:17:20.952Z,22.00
2022-08-26T06:20:00.456Z,22.10
2022-08-26T06:22:48.147Z,22.20
2022-08-26T06:25:37.664Z,22.30
2022-08-26T06:28:07.660Z,22.30
2022-08-26T06:30:41.901Z,22.40
2022-08-26T06:33:10.556Z,22.50
2022-08-26T06:35:42.934Z,22.60
2022-08-26T06:38:11.397Z,22.70
2022-08-26T06:40:42.749Z,22.80
2022-08-26T06:43:11.996Z,22.90
2022-08-26T06:45:44.840Z,23.00
2022-08-26T06:48:14.174Z,23.10
2022-08-26T06:50:46.271Z,23.10
2022-08-26T06:53:18.024Z,23.20
2022-08-26T06:55:47.383Z,23.30
2022-08-26T06:58:20.970Z,23.30
2022-08-26T07:00:49.964Z,23.40
2022-08-26T07:03:22.282Z,23.40
2022-08-26T07:05:53.524Z,23.50
2022-08-26T07:08:23.544Z,23.50
2022-08-26T07:10:53.975Z,23.60
2022-08-26T07:13:30.504Z,23.70
2022-08-26T07:16:03.172Z,23.80
2022-08-26T07:18:32.867Z,23.80
2022-08-26T07:21:08.010Z,23.80
2022-08-26T07:23:37.871Z,23.90
2022-08-26T07:26:16.298Z,24.00
2022-08-26T07:28:46.870Z,24.00
2022-08-26T07:31:17.107Z,24.10
2022-08-26T07:33:47.016Z,24.10
2022-08-26T07:36:17.614Z,24.20
2022-08-26T07:38:48.743Z,24.20
2022-08-26T07:41:18.478Z,24.30
2022-08-26T07:43:48.029Z,24.30
2022-08-26T07:46:29.978Z,24.40
2022-08-26T07:49:02.008Z,24.40
2022-08-26T07:51:32.975Z,24.50
2022-08-26T07:54:05.115Z,24.60
2022-08-26T07:56:33.914Z,24.60
2022-08-26T07:59:04.065Z,24.70
2022-08-26T08:01:44.850Z,24.70
2022-08-26T08:04:14.099Z,24.80
2022-08-26T08:06:44.993Z,24.90
2022-08-26T08:09:18.458Z,24.90
2022-08-26T08:11:48.415Z,25.00
2022-08-26T08:14:22.364Z,25.00
2022-08-26T08:16:54.898Z,25.10
2022-08-26T08:19:28.367Z,25.10
2022-08-26T08:22:17.335Z,25.20
2022-08-26T08:24:49.662Z,25.30
2022-08-26T08:27:23.280Z,25.30
2022-08-26T08:29:55.087Z,25.40
2022-08-26T08:32:24.991Z,25.40
2022-08-26T08:34:54.423Z,25.40
2022-08-26T08:37:25.027Z,25.50
2022-08-26T08:39:53.948Z,25.40
2022-08-26T08:42:39.683Z,25.50
2022-08-26T08:45:14.945Z,25.50
2022-08-26T08:47:51.460Z,25.60
2022-08-26T08:50:28.923Z,25.70
2022-08-26T08:53:08.902Z,25.80
2022-08-26T08:55:50.943Z,25.80
2022-08-26T08:58:23.396Z,25.80
2022-08-26T09:01:05.018Z,25.80
2022-08-26T09:03:47.086Z,25.90
2022-08-26T09:06:19.961Z,26.00
2022-08-26T09:08:52.006Z,26.10
2022-08-26T09:11:22.405Z,26.10
2022-08-26T09:13:54.036Z,26.20
2022-08-26T09:16:29.076Z,26.20
2022-08-26T09:19:11.296Z,26.30
2022-08-26T09:21:40.073Z,26.30
2022-08-26T09:24:13.993Z,26.40
2022-08-26T09:26:48.016Z,26.50
2022-08-26T09:29:24.104Z,26.60
2022-08-26T09:31:53.970Z,26.60
2022-08-26T09:34:25.070Z,26.60
2022-08-26T09:36:56.054Z,26.70
2022-08-26T09:39:33.456Z,26.70
2022-08-26T09:42:11.045Z,26.80
2022-08-26T09:44:58.076Z,26.80
2022-08-26T09:47:30.365Z,26.80
2022-08-26T09:50:09.624Z,26.90
2022-08-26T09:52:40.532Z,26.90
2022-08-26T09:55:17.164Z,27.00
2022-08-26T09:57:52.083Z,27.10
2022-08-26T10:00:30.972Z,27.10
2022-08-26T10:03:01.932Z,27.20
2022-08-26T10:05:34.084Z,27.40
2022-08-26T10:08:19.085Z,27.40
2022-08-26T10:10:49.002Z,27.50
2022-08-26T10:13:34.072Z,27.60
2022-08-26T10:16:15.016Z,27.70
2022-08-26T10:18:47.818Z,27.70
2022-08-26T10:21:24.972Z,27.80
2022-08-26T10:23:58.803Z,27.90
2022-08-26T10:26:40.002Z,28.00
2022-08-26T10:29:14.655Z,28.00
2022-08-26T10:31:51.429Z,28.10
2022-08-26T10:34:21.099Z,28.10
2022-08-26T10:37:15.842Z,28.20
2022-08-26T10:39:56.962Z,28.20
2022-08-26T10:42:37.593Z,28.30
2022-08-26T10:45:11.690Z,28.30
2022-08-26T10:47:47.110Z,28.30
2022-08-26T10:50:18.030Z,28.30
2022-08-26T10:52:56.410Z,28.30
2022-08-26T10:55:35.568Z,28.40
2022-08-26T10:58:29.118Z,28.40
2022-08-26T11:01:24.151Z,28.40
2022-08-26T11:04:01.316Z,28.50
2022-08-26T11:06:33.122Z,28.50
2022-08-26T11:09:10.154Z,28.50
2022-08-26T11:11:54.303Z,28.50
2022-08-26T11:14:45.946Z,28.60
2022-08-26T11:17:57.154Z,28.60
2022-08-26T11:20:41.506Z,28.60
2022-08-26T11:23:39.338Z,28.60
2022-08-26T11:26:35.744Z,28.70
2022-08-26T11:29:13.251Z,28.80
2022-08-26T11:31:58.619Z,28.80
2022-08-26T11:34:53.187Z,28.90
2022-08-26T11:37:30.156Z,28.90
2022-08-26T11:40:05.240Z,29.10
2022-08-26T11:42:43.150Z,29.10
2022-08-26T11:45:27.236Z,29.10
2022-08-26T11:47:58.219Z,29.10
2022-08-26T11:50:30.127Z,29.20
2022-08-26T11:53:06.206Z,29.20
2022-08-26T11:55:37.141Z,29.30
2022-08-26T11:58:07.588Z,29.30
2022-08-26T12:00:52.172Z,29.40
2022-08-26T12:03:25.221Z,29.50
2022-08-26T12:05:56.123Z,29.60
2022-08-26T12:08:29.200Z,29.80
2022-08-26T12:11:05.064Z,29.80
2022-08-26T12:13:34.184Z,30.00
2022-08-26T12:16:02.708Z,30.00
2022-08-26T12:18:39.451Z,30.10
2022-08-26T12:21:16.176Z,30.20
2022-08-26T12:23:50.100Z,30.40
2022-08-26T12:26:26.165Z,30.60
2022-08-26T12:28:58.726Z,30.80
2022-08-26T12:31:33.235Z,30.90
2022-08-26T12:34:06.253Z,31.10
2022-08-26T12:36:49.165Z,31.20
2022-08-26T12:39:28.596Z,31.40
2022-08-26T12:42:23.174Z,31.50
2022-08-26T12:45:03.237Z,31.60
2022-08-26T12:47:42.868Z,31.70
2022-08-26T12:50:20.300Z,31.80
2022-08-26T12:53:03.365Z,31.80
2022-08-26T12:55:40.282Z,31.90
2022-08-26T12:58:17.296Z,32.00
2022-08-26T13:00:47.203Z,32.10
2022-08-26T13:03:46.073Z,32.30
2022-08-26T13:06:25.855Z,32.50
2022-08-26T13:08:56.268Z,32.60
2022-08-26T13:11:27.609Z,32.80
2022-08-26T13:13:59.172Z,33.00
2022-08-26T13:16:30.684Z,33.10
2022-08-26T13:19:04.304Z,33.10
2022-08-26T13:21:38.268Z,33.00
2022-08-26T13:24:12.812Z,32.90
2022-08-26T13:26:45.321Z,32.90
2022-08-26T13:29:15.264Z,32.90
2022-08-26T13:31:45.079Z,33.00
2022-08-26T13:34:15.775Z,33.10
2022-08-26T13:36:45.328Z,33.30
2022-08-26T13:39:18.371Z,33.60
2022-08-26T13:41:46.672Z,34.20
2022-08-26T13:44:15.127Z,34.90
2022-08-26T13:49:16.936Z,36.60
2022-08-26T13:51:49.807Z,37.70
2022-08-26T13:54:17.938Z,38.80
2022-08-26T13:56:49.342Z,39.70
2022-08-26T13:59:17.514Z,40.50
2022-08-26T14:01:45.731Z,41.40
2022-08-26T14:04:15.700Z,41.90
2022-08-26T14:06:52.103Z,42.40
2022-08-26T14:09:23.574Z,42.70
2022-08-26T14:11:54.367Z,42.90
2022-08-26T14:14:30.415Z,43.10
2022-08-26T14:17:00.310Z,43.20
2022-08-26T14:19:34.632Z,43.20
2022-08-26T14:22:06.707Z,43.10
2022-08-26T14:24:34.760Z,43.20
2022-08-26T14:27:03.322Z,43.10
2022-08-26T14:29:32.331Z,42.60
2022-08-26T14:32:11.567Z,42.40
2022-08-26T14:34:42.221Z,42.50
2022-08-26T14:37:15.128Z,42.20
2022-08-26T14:39:43.705Z,42.20
2022-08-26T14:42:17.382Z,41.90
2022-08-26T14:44:47.423Z,41.60
2022-08-26T14:47:15.688Z,41.40
2022-08-26T14:49:44.234Z,41.70
2022-08-26T14:52:14.347Z,41.70
2022-08-26T14:54:41.531Z,41.30
2022-08-26T14:57:12.195Z,40.90
2022-08-26T14:59:43.346Z,40.50
2022-08-26T15:02:27.736Z,40.20
2022-08-26T15:05:02.762Z,39.80
2022-08-26T15:07:34.563Z,39.60
2022-08-26T15:10:03.419Z,39.30
2022-08-26T15:12:32.417Z,39.10
2022-08-26T15:15:00.767Z,38.90
2022-08-26T15:17:31.282Z,38.80
2022-08-26T15:20:01.616Z,38.60
2022-08-26T15:22:30.152Z,38.60
2022-08-26T15:24:59.931Z,38.40
2022-08-26T15:27:28.053Z,38.40
2022-08-26T15:29:58.627Z,38.30
2022-08-26T15:32:29.539Z,38.00
2022-08-26T15:34:58.384Z,37.90
2022-08-26T15:37:27.437Z,37.70
2022-08-26T15:39:56.826Z,37.40
2022-08-26T15:42:30.511Z,37.20
2022-08-26T15:44:58.558Z,37.00
2022-08-26T15:47:27.418Z,36.80
2022-08-26T15:50:00.186Z,36.80
2022-08-26T15:52:28.472Z,36.50
2022-08-26T15:54:59.749Z,36.40
2022-08-26T15:57:29.259Z,36.20
2022-08-26T16:00:02.749Z,36.00
2022-08-26T16:02:40.131Z,36.10
2022-08-26T16:05:14.370Z,36.00
2022-08-26T16:07:43.378Z,36.00
2022-08-26T16:10:12.885Z,35.80
2022-08-26T16:12:44.949Z,35.70
2022-08-26T16:15:18.433Z,35.50
2022-08-26T16:17:48.930Z,35.30
2022-08-26T16:20:18.065Z,35.20
2022-08-26T16:22:47.361Z,35.20
2022-08-26T16:25:18.825Z,34.90
2022-08-26T16:27:48.452Z,34.80
2022-08-26T16:30:21.434Z,34.70
2022-08-26T16:32:51.109Z,34.50
2022-08-26T16:35:20.256Z,34.50
2022-08-26T16:37:49.521Z,34.50
2022-08-26T16:40:18.388Z,34.50
2022-08-26T16:42:54.536Z,34.30
2022-08-26T16:45:23.309Z,34.10
2022-08-26T16:47:51.862Z,33.80
2022-08-26T16:50:21.306Z,33.60
2022-08-26T16:52:56.650Z,33.40
2022-08-26T16:55:25.446Z,33.10
2022-08-26T16:58:00.570Z,32.90
2022-08-26T17:00:30.723Z,32.80
2022-08-26T17:03:00.595Z,32.60
2022-08-26T17:05:29.827Z,32.30
2022-08-26T17:07:59.554Z,32.20
2022-08-26T17:10:30.365Z,32.00
2022-08-26T17:13:00.409Z,31.90
2022-08-26T17:15:29.347Z,31.70
2022-08-26T17:17:58.518Z,31.60
2022-08-26T17:20:28.367Z,31.40
2022-08-26T17:22:57.666Z,31.20
2022-08-26T17:25:28.588Z,31.00
2022-08-26T17:30:31.442Z,30.70
2022-08-26T17:32:59.950Z,30.60
2022-08-26T17:35:28.272Z,30.40
2022-08-26T17:37:56.719Z,30.30
2022-08-26T17:40:30.106Z,30.10
2022-08-26T17:42:59.916Z,30.00
2022-08-26T17:45:29.119Z,29.90
2022-08-26T17:47:59.518Z,29.80
2022-08-26T17:50:28.310Z,29.70
2022-08-26T17:52:59.335Z,29.50
2022-08-26T17:55:27.498Z,29.50
2022-08-26T17:57:57.402Z,29.40
2022-08-26T18:00:27.409Z,29.20
2022-08-26T18:02:58.264Z,29.10
2022-08-26T18:05:27.309Z,28.80
2022-08-26T18:07:58.426Z,28.70
2022-08-26T18:10:27.322Z,28.50
2022-08-26T18:12:55.475Z,28.40
2022-08-26T18:15:24.391Z,28.20
2022-08-26T18:17:55.581Z,28.10
2022-08-26T18:20:28.455Z,28.00
2022-08-26T18:22:57.037Z,27.90
2022-08-26T18:25:25.377Z,27.70
2022-08-26T18:27:54.454Z,27.60
2022-08-26T18:30:24.354Z,27.50
2022-08-26T18:32:56.431Z,27.40
2022-08-26T18:35:30.419Z,27.40
2022-08-26T18:38:10.584Z,27.30
2022-08-26T18:40:39.678Z,27.20
2022-08-26T18:43:07.929Z,27.10
2022-08-26T18:45:39.378Z,27.00
2022-08-26T18:48:07.446Z,27.00
2022-08-26T18:50:39.831Z,27.00
2022-08-26T18:53:08.296Z,26.90
2022-08-26T18:55:37.069Z,26.80
2022-08-26T18:58:08.695Z,26.70
2022-08-26T19:00:41.490Z,26.70
2022-08-26T19:03:18.863Z,26.60
2022-08-26T19:05:50.534Z,26.60
2022-08-26T19:08:18.577Z,26.50
2022-08-26T19:10:46.601Z,26.50
2022-08-26T19:13:19.115Z,26.40
2022-08-26T19:15:48.652Z,26.30
2022-08-26T19:18:20.012Z,26.30
2022-08-26T19:20:49.754Z,26.20
2022-08-26T19:23:31.426Z,26.20
2022-08-26T19:26:07.404Z,26.10
2022-08-26T19:28:35.774Z,26.00
2022-08-26T19:31:04.518Z,26.00
2022-08-26T19:33:33.452Z,25.90
2022-08-26T19:36:06.354Z,25.90
2022-08-26T19:38:36.667Z,25.90
2022-08-26T19:41:05.518Z,25.80
2022-08-26T19:43:36.564Z,25.80
2022-08-26T19:46:10.851Z,25.80
2022-08-26T19:48:39.249Z,25.70
2022-08-26T19:51:08.702Z,25.60
2022-08-26T19:53:38.460Z,25.50
2022-08-26T19:56:11.098Z,25.60
2022-08-26T19:58:40.516Z,25.60
2022-08-26T20:01:13.464Z,25.60
2022-08-26T20:03:42.621Z,25.60
2022-08-26T20:06:14.530Z,25.50
2022-08-26T20:08:43.928Z,25.40
2022-08-26T20:11:16.265Z,25.30
2022-08-26T20:13:48.608Z,25.20
2022-08-26T20:16:17.509Z,25.20
2022-08-26T20:19:03.767Z,25.10
2022-08-26T20:21:38.203Z,25.00
2022-08-26T20:24:09.453Z,25.00
2022-08-26T20:26:39.558Z,24.90
2022-08-26T20:29:12.751Z,24.90
2022-08-26T20:31:41.212Z,24.80
2022-08-26T20:34:09.416Z,24.70
2022-08-26T20:36:41.400Z,24.70
2022-08-26T20:39:11.560Z,24.60
2022-08-26T20:41:40.376Z,24.60
2022-08-26T20:44:10.468Z,24.50
2022-08-26T20:46:41.509Z,24.50
2022-08-26T20:49:10.668Z,24.50
2022-08-26T20:51:40.216Z,24.50
2022-08-26T20:54:09.619Z,24.50
2022-08-26T20:56:38.579Z,24.40
2022-08-26T20:59:09.807Z,24.40
2022-08-26T21:01:43.018Z,24.50
2022-08-26T21:04:14.598Z,24.50
2022-08-26T21:06:50.324Z,24.50
2022-08-26T21:09:20.872Z,24.50
2022-08-26T21:11:50.916Z,24.50
2022-08-26T21:14:20.617Z,24.40
2022-08-26T21:16:52.610Z,24.40
2022-08-26T21:19:20.829Z,24.40
2022-08-26T21:21:51.603Z,24.30
2022-08-26T21:24:20.422Z,24.20
2022-08-26T21:26:49.572Z,24.20
2022-08-26T21:29:22.137Z,24.20
2022-08-26T21:31:50.634Z,24.20
2022-08-26T21:34:20.099Z,24.20
2022-08-26T21:36:50.701Z,24.10
2022-08-26T21:39:19.598Z,24.00
2022-08-26T21:41:48.540Z,24.00
2022-08-26T21:44:18.614Z,24.00
2022-08-26T21:46:49.139Z,23.90
2022-08-26T21:49:18.520Z,23.90
2022-08-26T21:51:49.643Z,23.80
2022-08-26T21:54:19.541Z,23.80
2022-08-26T21:56:52.769Z,23.80
2022-08-26T21:59:24.701Z,23.70
2022-08-26T22:01:53.556Z,23.70
2022-08-26T22:04:24.950Z,23.60
2022-08-26T22:06:55.235Z,23.60
2022-08-26T22:09:29.409Z,23.50
2022-08-26T22:11:58.627Z,23.60
2022-08-26T22:14:30.720Z,23.60
2022-08-26T22:17:02.688Z,23.50
2022-08-26T22:19:34.052Z,23.50
2022-08-26T22:22:10.673Z,23.50
2022-08-26T22:24:40.071Z,23.50
2022-08-26T22:27:09.647Z,23.50
2022-08-26T22:29:38.646Z,23.40
2022-08-26T22:32:07.952Z,23.50
2022-08-26T22:34:36.015Z,23.50
2022-08-26T22:37:04.667Z,23.50
2022-08-26T22:39:33.570Z,23.40
2022-08-26T22:42:04.066Z,23.40
2022-08-26T22:44:36.523Z,23.40
2022-08-26T22:47:04.700Z,23.40
2022-08-26T22:49:33.657Z,23.30
2022-08-26T22:52:05.566Z,23.40
2022-08-26T22:54:34.653Z,23.40
2022-08-26T22:57:04.908Z,23.30
2022-08-26T22:59:33.161Z,23.30
2022-08-26T23:02:01.918Z,23.30
2022-08-26T23:04:33.557Z,23.30
2022-08-26T23:07:07.816Z,23.30
2022-08-26T23:09:36.568Z,23.20
2022-08-26T23:12:06.706Z,23.20
2022-08-26T23:14:34.778Z,23.20
2022-08-26T23:17:03.606Z,23.10
2022-08-26T23:19:32.682Z,23.10
2022-08-26T23:22:01.595Z,23.10
2022-08-26T23:24:30.677Z,23.10
2022-08-26T23:27:03.286Z,23.10
2022-08-26T23:29:36.806Z,23.00
2022-08-26T23:32:05.453Z,23.00
2022-08-26T23:34:52.600Z,22.90
2022-08-26T23:37:22.750Z,22.90
2022-08-26T23:39:52.680Z,22.90
2022-08-26T23:42:22.005Z,22.80
2022-08-26T23:44:54.618Z,22.80
2022-08-26T23:47:26.906Z,22.80
2022-08-26T23:49:55.102Z,22.70
2022-08-26T23:52:42.128Z,22.70
2022-08-26T23:55:12.042Z,22.70
2022-08-26T23:57:42.754Z,22.60
